sensor_id;sensor_type;location;lat;lon;timestamp;P1;durP1;ratioP1;P2;durP2;ratioP2
70667;SDS011;58242;51.250;-1.118;2023-08-01T00:01:01;4.00;;;3.60;;
70667;SDS011;58242;51.250;-1.118;2023-08-01T00:03:27;4.07;;;3.67;;
70667;SDS011;58242;51.250;-1.118;2023-08-01T00:05:52;6.78;;;4.47;;
70667;SDS011;58242;51.250;-1.118;2023-08-01T00:08:19;4.30;;;3.97;;
70667;SDS011;58242;51.250;-1.118;2023-08-01T00:10:45;4.65;;;4.22;;
70667;SDS011;58242;51.250;-1.118;2023-08-01T00:13:10;4.82;;;4.45;;
70667;SDS011;58242;51.250;-1.118;2023-08-01T00:15:36;4.80;;;4.40;;
70667;SDS011;58242;51.250;-1.118;2023-08-01T00:18:01;6.68;;;5.03;;
70667;SDS011;58242;51.250;-1.118;2023-08-01T00:20:26;5.10;;;4.60;;
70667;SDS011;58242;51.250;-1.118;2023-08-01T00:22:51;4.57;;;4.20;;
70667;SDS011;58242;51.250;-1.118;2023-08-01T00:25:17;4.90;;;4.43;;
70667;SDS011;58242;51.250;-1.118;2023-08-01T00:27:43;4.38;;;3.97;;
70667;SDS011;58242;51.250;-1.118;2023-08-01T00:30:08;4.68;;;4.25;;
70667;SDS011;58242;51.250;-1.118;2023-08-01T00:32:34;4.72;;;4.32;;
70667;SDS011;58242;51.250;-1.118;2023-08-01T00:35:00;4.80;;;4.47;;
70667;SDS011;58242;51.250;-1.118;2023-08-01T00:37:25;4.70;;;4.30;;
70667;SDS011;58242;51.250;-1.118;2023-08-01T00:39:51;4.68;;;4.28;;
70667;SDS011;58242;51.250;-1.118;2023-08-01T00:42:16;5.43;;;4.95;;
70667;SDS011;58242;51.250;-1.118;2023-08-01T00:44:41;4.68;;;4.25;;
70667;SDS011;58242;51.250;-1.118;2023-08-01T00:47:07;5.03;;;4.53;;
70667;SDS011;58242;51.250;-1.118;2023-08-01T00:49:33;5.15;;;4.75;;
70667;SDS011;58242;51.250;-1.118;2023-08-01T00:51:59;7.53;;;4.95;;
70667;SDS011;58242;51.250;-1.118;2023-08-01T00:54:24;4.78;;;4.35;;
70667;SDS011;58242;51.250;-1.118;2023-08-01T00:56:50;5.60;;;4.53;;
70667;SDS011;58242;51.250;-1.118;2023-08-01T00:59:16;5.07;;;4.32;;
70667;SDS011;58242;51.250;-1.118;2023-08-01T01:01:41;7.72;;;5.20;;
70667;SDS011;58242;51.250;-1.118;2023-08-01T01:04:06;5.82;;;4.82;;
70667;SDS011;58242;51.250;-1.118;2023-08-01T01:06:32;6.63;;;4.95;;
70667;SDS011;58242;51.250;-1.118;2023-08-01T01:09:02;5.63;;;4.43;;
70667;SDS011;58242;51.250;-1.118;2023-08-01T01:11:38;5.25;;;4.75;;
70667;SDS011;58242;51.250;-1.118;2023-08-01T01:14:04;5.43;;;4.85;;
70667;SDS011;58242;51.250;-1.118;2023-08-01T01:16:29;5.25;;;4.60;;
70667;SDS011;58242;51.250;-1.118;2023-08-01T01:18:54;7.55;;;4.97;;
70667;SDS011;58242;51.250;-1.118;2023-08-01T01:21:20;4.68;;;4.28;;
70667;SDS011;58242;51.250;-1.118;2023-08-01T01:23:45;5.85;;;4.60;;
70667;SDS011;58242;51.250;-1.118;2023-08-01T01:26:12;4.43;;;4.05;;
70667;SDS011;58242;51.250;-1.118;2023-08-01T01:31:07;5.57;;;4.78;;
70667;SDS011;58242;51.250;-1.118;2023-08-01T01:33:32;5.03;;;4.53;;
70667;SDS011;58242;51.250;-1.118;2023-08-01T01:36:00;4.82;;;4.38;;
70667;SDS011;58242;51.250;-1.118;2023-08-01T01:38:26;5.30;;;4.90;;
70667;SDS011;58242;51.250;-1.118;2023-08-01T01:40:51;4.47;;;4.13;;
70667;SDS011;58242;51.250;-1.118;2023-08-01T01:43:16;4.85;;;4.45;;
70667;SDS011;58242;51.250;-1.118;2023-08-01T01:45:41;5.53;;;4.85;;
70667;SDS011;58242;51.250;-1.118;2023-08-01T01:48:07;5.50;;;4.22;;
70667;SDS011;58242;51.250;-1.118;2023-08-01T01:50:32;6.90;;;4.75;;
70667;SDS011;58242;51.250;-1.118;2023-08-01T01:52:57;5.93;;;5.35;;
70667;SDS011;58242;51.250;-1.118;2023-08-01T01:55:23;7.38;;;4.93;;
70667;SDS011;58242;51.250;-1.118;2023-08-01T01:57:48;4.88;;;4.43;;
70667;SDS011;58242;51.250;-1.118;2023-08-01T02:00:13;5.35;;;4.95;;
70667;SDS011;58242;51.250;-1.118;2023-08-01T02:02:39;5.40;;;4.90;;
70667;SDS011;58242;51.250;-1.118;2023-08-01T02:05:04;4.53;;;4.13;;
70667;SDS011;58242;51.250;-1.118;2023-08-01T02:07:30;5.57;;;4.65;;
70667;SDS011;58242;51.250;-1.118;2023-08-01T02:09:55;6.32;;;4.55;;
70667;SDS011;58242;51.250;-1.118;2023-08-01T02:12:21;5.28;;;4.78;;
70667;SDS011;58242;51.250;-1.118;2023-08-01T02:14:46;5.30;;;3.88;;
70667;SDS011;58242;51.250;-1.118;2023-08-01T02:17:11;5.13;;;4.63;;
70667;SDS011;58242;51.250;-1.118;2023-08-01T02:19:37;4.75;;;4.35;;
70667;SDS011;58242;51.250;-1.118;2023-08-01T02:22:02;4.82;;;4.22;;
70667;SDS011;58242;51.250;-1.118;2023-08-01T02:24:28;4.35;;;4.00;;
70667;SDS011;58242;51.250;-1.118;2023-08-01T02:26:53;4.90;;;4.40;;
70667;SDS011;58242;51.250;-1.118;2023-08-01T02:29:19;4.20;;;3.80;;
70667;SDS011;58242;51.250;-1.118;2023-08-01T02:31:44;5.05;;;4.35;;
70667;SDS011;58242;51.250;-1.118;2023-08-01T02:34:09;5.43;;;4.47;;
70667;SDS011;58242;51.250;-1.118;2023-08-01T02:36:35;4.55;;;4.15;;
70667;SDS011;58242;51.250;-1.118;2023-08-01T02:39:00;5.68;;;4.15;;
70667;SDS011;58242;51.250;-1.118;2023-08-01T02:41:25;5.00;;;4.47;;
70667;SDS011;58242;51.250;-1.118;2023-08-01T02:43:51;4.72;;;4.30;;
70667;SDS011;58242;51.250;-1.118;2023-08-01T02:46:16;4.55;;;4.15;;
70667;SDS011;58242;51.250;-1.118;2023-08-01T02:48:42;4.13;;;3.83;;
70667;SDS011;58242;51.250;-1.118;2023-08-01T02:51:07;6.60;;;4.70;;
70667;SDS011;58242;51.250;-1.118;2023-08-01T02:53:34;5.20;;;4.15;;
70667;SDS011;58242;51.250;-1.118;2023-08-01T02:56:05;4.45;;;4.15;;
70667;SDS011;58242;51.250;-1.118;2023-08-01T02:58:32;4.88;;;3.92;;
70667;SDS011;58242;51.250;-1.118;2023-08-01T03:00:57;4.35;;;3.95;;
70667;SDS011;58242;51.250;-1.118;2023-08-01T03:03:23;4.70;;;4.30;;
70667;SDS011;58242;51.250;-1.118;2023-08-01T03:05:48;5.30;;;4.32;;
70667;SDS011;58242;51.250;-1.118;2023-08-01T03:08:13;5.68;;;4.25;;
70667;SDS011;58242;51.250;-1.118;2023-08-01T03:10:39;4.30;;;3.90;;
70667;SDS011;58242;51.250;-1.118;2023-08-01T03:13:04;4.25;;;3.85;;
70667;SDS011;58242;51.250;-1.118;2023-08-01T03:15:29;4.45;;;3.60;;
70667;SDS011;58242;51.250;-1.118;2023-08-01T03:17:55;6.75;;;4.50;;
70667;SDS011;58242;51.250;-1.118;2023-08-01T03:20:20;4.85;;;4.25;;
70667;SDS011;58242;51.250;-1.118;2023-08-01T03:22:47;5.65;;;4.13;;
70667;SDS011;58242;51.250;-1.118;2023-08-01T03:25:13;4.90;;;4.50;;
70667;SDS011;58242;51.250;-1.118;2023-08-01T03:27:38;5.35;;;4.60;;
70667;SDS011;58242;51.250;-1.118;2023-08-01T03:30:03;5.03;;;4.55;;
70667;SDS011;58242;51.250;-1.118;2023-08-01T03:32:29;4.93;;;4.53;;
70667;SDS011;58242;51.250;-1.118;2023-08-01T03:34:55;5.70;;;4.35;;
70667;SDS011;58242;51.250;-1.118;2023-08-01T03:37:20;4.50;;;4.10;;
70667;SDS011;58242;51.250;-1.118;2023-08-01T03:39:46;4.95;;;4.53;;
70667;SDS011;58242;51.250;-1.118;2023-08-01T03:42:11;4.90;;;4.60;;
70667;SDS011;58242;51.250;-1.118;2023-08-01T03:44:36;4.78;;;4.40;;
70667;SDS011;58242;51.250;-1.118;2023-08-01T03:47:02;4.57;;;4.28;;
70667;SDS011;58242;51.250;-1.118;2023-08-01T03:49:27;5.22;;;4.60;;
70667;SDS011;58242;51.250;-1.118;2023-08-01T03:51:53;5.72;;;4.47;;
70667;SDS011;58242;51.250;-1.118;2023-08-01T03:54:18;4.35;;;3.95;;
70667;SDS011;58242;51.250;-1.118;2023-08-01T03:56:43;4.95;;;4.57;;
70667;SDS011;58242;51.250;-1.118;2023-08-01T03:59:13;5.20;;;4.55;;
70667;SDS011;58242;51.250;-1.118;2023-08-01T04:01:39;4.50;;;4.10;;
70667;SDS011;58242;51.250;-1.118;2023-08-01T04:04:04;6.25;;;5.07;;
70667;SDS011;58242;51.250;-1.118;2023-08-01T04:06:30;4.30;;;3.95;;
70667;SDS011;58242;51.250;-1.118;2023-08-01T04:08:55;4.65;;;4.35;;
70667;SDS011;58242;51.250;-1.118;2023-08-01T04:11:21;5.25;;;4.75;;
70667;SDS011;58242;51.250;-1.118;2023-08-01T04:13:47;5.50;;;4.97;;
70667;SDS011;58242;51.250;-1.118;2023-08-01T04:16:12;4.80;;;4.35;;
70667;SDS011;58242;51.250;-1.118;2023-08-01T04:18:37;4.80;;;4.43;;
70667;SDS011;58242;51.250;-1.118;2023-08-01T04:21:03;5.25;;;4.75;;
70667;SDS011;58242;51.250;-1.118;2023-08-01T04:23:28;4.85;;;4.45;;
70667;SDS011;58242;51.250;-1.118;2023-08-01T04:25:53;6.63;;;5.03;;
70667;SDS011;58242;51.250;-1.118;2023-08-01T04:28:19;5.88;;;5.35;;
70667;SDS011;58242;51.250;-1.118;2023-08-01T04:30:48;5.35;;;4.95;;
70667;SDS011;58242;51.250;-1.118;2023-08-01T04:33:14;5.72;;;4.93;;
70667;SDS011;58242;51.250;-1.118;2023-08-01T04:35:39;5.93;;;5.43;;
70667;SDS011;58242;51.250;-1.118;2023-08-01T04:38:05;5.82;;;5.43;;
70667;SDS011;58242;51.250;-1.118;2023-08-01T04:40:30;5.40;;;5.00;;
70667;SDS011;58242;51.250;-1.118;2023-08-01T04:42:55;4.90;;;4.50;;
70667;SDS011;58242;51.250;-1.118;2023-08-01T04:45:21;7.65;;;5.45;;
70667;SDS011;58242;51.250;-1.118;2023-08-01T04:47:46;6.13;;;5.65;;
70667;SDS011;58242;51.250;-1.118;2023-08-01T04:50:11;5.75;;;5.30;;
70667;SDS011;58242;51.250;-1.118;2023-08-01T04:52:37;6.50;;;5.90;;
70667;SDS011;58242;51.250;-1.118;2023-08-01T04:55:02;5.63;;;5.13;;
70667;SDS011;58242;51.250;-1.118;2023-08-01T04:57:28;5.72;;;5.20;;
70667;SDS011;58242;51.250;-1.118;2023-08-01T04:59:53;5.20;;;4.75;;
70667;SDS011;58242;51.250;-1.118;2023-08-01T05:02:19;6.10;;;5.60;;
70667;SDS011;58242;51.250;-1.118;2023-08-01T05:04:44;7.25;;;5.35;;
70667;SDS011;58242;51.250;-1.118;2023-08-01T05:07:09;5.82;;;5.43;;
70667;SDS011;58242;51.250;-1.118;2023-08-01T05:09:34;6.47;;;5.63;;
70667;SDS011;58242;51.250;-1.118;2023-08-01T05:12:00;4.93;;;4.53;;
70667;SDS011;58242;51.250;-1.118;2023-08-01T05:14:25;5.00;;;4.47;;
70667;SDS011;58242;51.250;-1.118;2023-08-01T05:16:50;5.55;;;5.05;;
70667;SDS011;58242;51.250;-1.118;2023-08-01T05:19:15;6.45;;;4.82;;
70667;SDS011;58242;51.250;-1.118;2023-08-01T05:21:41;4.63;;;4.22;;
70667;SDS011;58242;51.250;-1.118;2023-08-01T05:24:06;4.72;;;4.32;;
70667;SDS011;58242;51.250;-1.118;2023-08-01T05:26:31;4.78;;;4.38;;
70667;SDS011;58242;51.250;-1.118;2023-08-01T05:28:57;4.43;;;4.07;;
70667;SDS011;58242;51.250;-1.118;2023-08-01T05:31:22;4.03;;;3.65;;
70667;SDS011;58242;51.250;-1.118;2023-08-01T05:33:47;3.80;;;3.50;;
70667;SDS011;58242;51.250;-1.118;2023-08-01T05:36:12;9.27;;;4.15;;
70667;SDS011;58242;51.250;-1.118;2023-08-01T05:38:38;3.78;;;3.58;;
70667;SDS011;58242;51.250;-1.118;2023-08-01T05:41:03;4.03;;;3.60;;
70667;SDS011;58242;51.250;-1.118;2023-08-01T05:43:28;4.05;;;3.58;;
70667;SDS011;58242;51.250;-1.118;2023-08-01T05:45:54;3.75;;;2.90;;
70667;SDS011;58242;51.250;-1.118;2023-08-01T05:48:21;4.03;;;3.65;;
70667;SDS011;58242;51.250;-1.118;2023-08-01T05:50:46;6.22;;;3.63;;
70667;SDS011;58242;51.250;-1.118;2023-08-01T05:53:11;4.40;;;4.00;;
70667;SDS011;58242;51.250;-1.118;2023-08-01T05:55:37;4.63;;;3.97;;
70667;SDS011;58242;51.250;-1.118;2023-08-01T05:58:02;4.18;;;3.90;;
70667;SDS011;58242;51.250;-1.118;2023-08-01T06:00:27;4.47;;;3.58;;
70667;SDS011;58242;51.250;-1.118;2023-08-01T06:02:53;4.45;;;3.53;;
70667;SDS011;58242;51.250;-1.118;2023-08-01T06:05:18;3.45;;;3.15;;
70667;SDS011;58242;51.250;-1.118;2023-08-01T06:07:43;5.05;;;4.15;;
70667;SDS011;58242;51.250;-1.118;2023-08-01T06:10:09;3.88;;;3.47;;
70667;SDS011;58242;51.250;-1.118;2023-08-01T06:12:34;3.38;;;3.10;;
70667;SDS011;58242;51.250;-1.118;2023-08-01T06:15:00;4.10;;;2.97;;
70667;SDS011;58242;51.250;-1.118;2023-08-01T06:17:25;5.30;;;3.22;;
70667;SDS011;58242;51.250;-1.118;2023-08-01T06:19:51;4.63;;;3.25;;
70667;SDS011;58242;51.250;-1.118;2023-08-01T06:22:17;5.50;;;3.28;;
70667;SDS011;58242;51.250;-1.118;2023-08-01T06:24:42;4.40;;;3.22;;
70667;SDS011;58242;51.250;-1.118;2023-08-01T06:27:08;4.72;;;2.90;;
70667;SDS011;58242;51.250;-1.118;2023-08-01T06:29:33;4.28;;;2.72;;
70667;SDS011;58242;51.250;-1.118;2023-08-01T06:31:58;3.85;;;2.72;;
70667;SDS011;58242;51.250;-1.118;2023-08-01T06:34:23;3.38;;;2.53;;
70667;SDS011;58242;51.250;-1.118;2023-08-01T06:36:50;3.05;;;2.60;;
70667;SDS011;58242;51.250;-1.118;2023-08-01T06:39:15;2.70;;;2.40;;
70667;SDS011;58242;51.250;-1.118;2023-08-01T06:41:40;4.10;;;2.92;;
70667;SDS011;58242;51.250;-1.118;2023-08-01T06:44:06;3.88;;;2.40;;
70667;SDS011;58242;51.250;-1.118;2023-08-01T06:46:31;5.97;;;2.72;;
70667;SDS011;58242;51.250;-1.118;2023-08-01T06:48:57;3.92;;;2.53;;
70667;SDS011;58242;51.250;-1.118;2023-08-01T06:51:22;3.85;;;2.85;;
70667;SDS011;58242;51.250;-1.118;2023-08-01T06:53:48;5.13;;;2.75;;
70667;SDS011;58242;51.250;-1.118;2023-08-01T06:56:13;3.30;;;2.97;;
70667;SDS011;58242;51.250;-1.118;2023-08-01T06:58:38;3.83;;;3.25;;
70667;SDS011;58242;51.250;-1.118;2023-08-01T07:01:04;3.35;;;2.70;;
70667;SDS011;58242;51.250;-1.118;2023-08-01T07:03:29;4.45;;;3.10;;
70667;SDS011;58242;51.250;-1.118;2023-08-01T07:05:54;3.20;;;2.90;;
70667;SDS011;58242;51.250;-1.118;2023-08-01T07:08:20;2.90;;;2.70;;
70667;SDS011;58242;51.250;-1.118;2023-08-01T07:10:46;4.20;;;3.03;;
70667;SDS011;58242;51.250;-1.118;2023-08-01T07:13:12;3.55;;;2.63;;
70667;SDS011;58242;51.250;-1.118;2023-08-01T07:15:37;3.28;;;2.70;;
70667;SDS011;58242;51.250;-1.118;2023-08-01T07:18:02;2.97;;;2.40;;
70667;SDS011;58242;51.250;-1.118;2023-08-01T07:20:28;4.53;;;3.42;;
70667;SDS011;58242;51.250;-1.118;2023-08-01T07:22:53;2.80;;;2.60;;
70667;SDS011;58242;51.250;-1.118;2023-08-01T07:25:18;3.92;;;2.55;;
70667;SDS011;58242;51.250;-1.118;2023-08-01T07:27:44;2.50;;;2.35;;
70667;SDS011;58242;51.250;-1.118;2023-08-01T07:30:10;3.58;;;2.88;;
70667;SDS011;58242;51.250;-1.118;2023-08-01T07:32:36;3.03;;;2.30;;
70667;SDS011;58242;51.250;-1.118;2023-08-01T07:35:03;3.58;;;2.67;;
70667;SDS011;58242;51.250;-1.118;2023-08-01T07:37:33;3.13;;;2.83;;
70667;SDS011;58242;51.250;-1.118;2023-08-01T07:39:58;3.25;;;2.90;;
70667;SDS011;58242;51.250;-1.118;2023-08-01T07:42:24;2.13;;;2.00;;
70667;SDS011;58242;51.250;-1.118;2023-08-01T07:44:49;2.88;;;2.50;;
70667;SDS011;58242;51.250;-1.118;2023-08-01T07:47:14;3.08;;;2.70;;
70667;SDS011;58242;51.250;-1.118;2023-08-01T07:49:40;2.95;;;2.75;;
70667;SDS011;58242;51.250;-1.118;2023-08-01T07:52:05;2.88;;;2.50;;
70667;SDS011;58242;51.250;-1.118;2023-08-01T07:54:31;2.72;;;2.53;;
70667;SDS011;58242;51.250;-1.118;2023-08-01T07:56:56;2.00;;;1.90;;
70667;SDS011;58242;51.250;-1.118;2023-08-01T07:59:21;2.33;;;2.10;;
70667;SDS011;58242;51.250;-1.118;2023-08-01T08:01:47;2.95;;;2.17;;
70667;SDS011;58242;51.250;-1.118;2023-08-01T08:04:13;2.90;;;2.70;;
70667;SDS011;58242;51.250;-1.118;2023-08-01T08:06:39;2.75;;;2.10;;
70667;SDS011;58242;51.250;-1.118;2023-08-01T08:09:05;2.60;;;2.40;;
70667;SDS011;58242;51.250;-1.118;2023-08-01T08:11:30;2.13;;;2.03;;
70667;SDS011;58242;51.250;-1.118;2023-08-01T08:13:56;2.67;;;2.38;;
70667;SDS011;58242;51.250;-1.118;2023-08-01T08:16:21;3.60;;;2.55;;
70667;SDS011;58242;51.250;-1.118;2023-08-01T08:18:46;2.50;;;2.40;;
70667;SDS011;58242;51.250;-1.118;2023-08-01T08:21:12;2.85;;;2.50;;
70667;SDS011;58242;51.250;-1.118;2023-08-01T08:23:37;2.17;;;2.05;;
70667;SDS011;58242;51.250;-1.118;2023-08-01T08:26:03;7.65;;;2.08;;
70667;SDS011;58242;51.250;-1.118;2023-08-01T08:28:30;3.60;;;2.13;;
70667;SDS011;58242;51.250;-1.118;2023-08-01T08:30:57;2.50;;;2.22;;
70667;SDS011;58242;51.250;-1.118;2023-08-01T08:33:23;2.30;;;2.10;;
70667;SDS011;58242;51.250;-1.118;2023-08-01T08:35:48;2.53;;;2.33;;
70667;SDS011;58242;51.250;-1.118;2023-08-01T08:38:14;2.17;;;2.05;;
70667;SDS011;58242;51.250;-1.118;2023-08-01T08:40:40;2.13;;;1.95;;
70667;SDS011;58242;51.250;-1.118;2023-08-01T08:43:08;2.60;;;2.40;;
70667;SDS011;58242;51.250;-1.118;2023-08-01T08:45:35;2.45;;;2.22;;
70667;SDS011;58242;51.250;-1.118;2023-08-01T08:48:01;2.63;;;1.80;;
70667;SDS011;58242;51.250;-1.118;2023-08-01T08:50:34;2.95;;;2.10;;
70667;SDS011;58242;51.250;-1.118;2023-08-01T08:53:00;2.50;;;1.80;;
70667;SDS011;58242;51.250;-1.118;2023-08-01T08:55:27;1.98;;;1.88;;
70667;SDS011;58242;51.250;-1.118;2023-08-01T08:57:53;3.45;;;2.15;;
70667;SDS011;58242;51.250;-1.118;2023-08-01T09:00:20;1.98;;;1.65;;
70667;SDS011;58242;51.250;-1.118;2023-08-01T09:02:46;2.38;;;1.83;;
70667;SDS011;58242;51.250;-1.118;2023-08-01T09:05:12;2.33;;;2.13;;
70667;SDS011;58242;51.250;-1.118;2023-08-01T09:07:38;2.42;;;2.22;;
70667;SDS011;58242;51.250;-1.118;2023-08-01T09:10:06;4.00;;;2.70;;
70667;SDS011;58242;51.250;-1.118;2023-08-01T09:12:35;2.78;;;2.53;;
70667;SDS011;58242;51.250;-1.118;2023-08-01T09:15:00;2.40;;;2.20;;
70667;SDS011;58242;51.250;-1.118;2023-08-01T09:17:26;1.90;;;1.80;;
70667;SDS011;58242;51.250;-1.118;2023-08-01T09:19:55;2.45;;;2.25;;
70667;SDS011;58242;51.250;-1.118;2023-08-01T09:22:27;2.38;;;2.17;;
70667;SDS011;58242;51.250;-1.118;2023-08-01T09:24:53;1.90;;;1.80;;
70667;SDS011;58242;51.250;-1.118;2023-08-01T09:27:20;1.83;;;1.73;;
70667;SDS011;58242;51.250;-1.118;2023-08-01T09:29:46;1.77;;;1.67;;
70667;SDS011;58242;51.250;-1.118;2023-08-01T09:32:11;1.77;;;1.67;;
70667;SDS011;58242;51.250;-1.118;2023-08-01T09:34:38;2.38;;;1.65;;
70667;SDS011;58242;51.250;-1.118;2023-08-01T09:37:04;1.80;;;1.63;;
70667;SDS011;58242;51.250;-1.118;2023-08-01T09:39:29;2.30;;;2.10;;
70667;SDS011;58242;51.250;-1.118;2023-08-01T09:41:56;1.98;;;1.85;;
70667;SDS011;58242;51.250;-1.118;2023-08-01T09:44:25;1.88;;;1.60;;
70667;SDS011;58242;51.250;-1.118;2023-08-01T09:47:02;1.80;;;1.70;;
70667;SDS011;58242;51.250;-1.118;2023-08-01T09:49:29;1.80;;;1.70;;
70667;SDS011;58242;51.250;-1.118;2023-08-01T09:51:55;2.28;;;2.13;;
70667;SDS011;58242;51.250;-1.118;2023-08-01T09:54:22;2.60;;;2.40;;
70667;SDS011;58242;51.250;-1.118;2023-08-01T09:56:49;2.10;;;1.90;;
70667;SDS011;58242;51.250;-1.118;2023-08-01T09:59:23;2.25;;;2.05;;
70667;SDS011;58242;51.250;-1.118;2023-08-01T10:01:50;2.47;;;1.90;;
70667;SDS011;58242;51.250;-1.118;2023-08-01T10:04:38;2.00;;;1.77;;
70667;SDS011;58242;51.250;-1.118;2023-08-01T10:07:09;2.20;;;2.03;;
70667;SDS011;58242;51.250;-1.118;2023-08-01T10:09:36;2.22;;;2.00;;
70667;SDS011;58242;51.250;-1.118;2023-08-01T10:12:02;3.58;;;2.40;;
70667;SDS011;58242;51.250;-1.118;2023-08-01T10:14:30;2.10;;;1.90;;
70667;SDS011;58242;51.250;-1.118;2023-08-01T10:16:57;2.40;;;1.65;;
70667;SDS011;58242;51.250;-1.118;2023-08-01T10:19:22;2.47;;;1.75;;
70667;SDS011;58242;51.250;-1.118;2023-08-01T10:21:49;1.58;;;1.48;;
70667;SDS011;58242;51.250;-1.118;2023-08-01T10:24:16;1.60;;;1.50;;
70667;SDS011;58242;51.250;-1.118;2023-08-01T10:26:44;1.65;;;1.55;;
70667;SDS011;58242;51.250;-1.118;2023-08-01T10:29:10;1.83;;;1.35;;
70667;SDS011;58242;51.250;-1.118;2023-08-01T10:31:36;2.17;;;1.55;;
70667;SDS011;58242;51.250;-1.118;2023-08-01T10:34:05;1.67;;;1.40;;
70667;SDS011;58242;51.250;-1.118;2023-08-01T10:36:31;1.77;;;1.50;;
70667;SDS011;58242;51.250;-1.118;2023-08-01T10:38:58;1.92;;;1.80;;
70667;SDS011;58242;51.250;-1.118;2023-08-01T10:49:42;1.80;;;1.67;;
70667;SDS011;58242;51.250;-1.118;2023-08-01T10:52:19;2.47;;;2.25;;
70667;SDS011;58242;51.250;-1.118;2023-08-01T10:54:55;2.30;;;1.85;;
70667;SDS011;58242;51.250;-1.118;2023-08-01T10:57:21;1.27;;;1.20;;
70667;SDS011;58242;51.250;-1.118;2023-08-01T10:59:46;2.08;;;1.85;;
70667;SDS011;58242;51.250;-1.118;2023-08-01T11:02:18;1.40;;;1.30;;
70667;SDS011;58242;51.250;-1.118;2023-08-01T11:04:54;1.58;;;1.25;;
70667;SDS011;58242;51.250;-1.118;2023-08-01T11:07:20;2.10;;;1.58;;
70667;SDS011;58242;51.250;-1.118;2023-08-01T11:09:45;1.88;;;1.50;;
70667;SDS011;58242;51.250;-1.118;2023-08-01T11:12:11;1.55;;;1.45;;
70667;SDS011;58242;51.250;-1.118;2023-08-01T11:14:37;1.20;;;1.10;;
70667;SDS011;58242;51.250;-1.118;2023-08-01T11:17:02;1.48;;;1.20;;
70667;SDS011;58242;51.250;-1.118;2023-08-01T11:19:29;1.55;;;1.45;;
70667;SDS011;58242;51.250;-1.118;2023-08-01T11:21:55;1.42;;;1.33;;
70667;SDS011;58242;51.250;-1.118;2023-08-01T11:24:25;1.95;;;1.85;;
70667;SDS011;58242;51.250;-1.118;2023-08-01T11:26:51;1.75;;;1.65;;
70667;SDS011;58242;51.250;-1.118;2023-08-01T11:29:19;1.97;;;1.77;;
70667;SDS011;58242;51.250;-1.118;2023-08-01T11:31:52;3.05;;;1.77;;
70667;SDS011;58242;51.250;-1.118;2023-08-01T11:34:18;1.67;;;1.58;;
70667;SDS011;58242;51.250;-1.118;2023-08-01T11:36:44;1.63;;;1.52;;
70667;SDS011;58242;51.250;-1.118;2023-08-01T11:39:11;2.50;;;1.88;;
70667;SDS011;58242;51.250;-1.118;2023-08-01T11:41:37;1.92;;;1.73;;
70667;SDS011;58242;51.250;-1.118;2023-08-01T11:44:03;3.70;;;2.17;;
70667;SDS011;58242;51.250;-1.118;2023-08-01T11:46:33;2.03;;;1.80;;
70667;SDS011;58242;51.250;-1.118;2023-08-01T11:49:00;2.50;;;2.30;;
70667;SDS011;58242;51.250;-1.118;2023-08-01T11:51:28;2.63;;;2.42;;
70667;SDS011;58242;51.250;-1.118;2023-08-01T11:53:57;2.67;;;2.30;;
70667;SDS011;58242;51.250;-1.118;2023-08-01T11:56:24;2.35;;;2.15;;
70667;SDS011;58242;51.250;-1.118;2023-08-01T11:58:49;2.00;;;1.38;;
70667;SDS011;58242;51.250;-1.118;2023-08-01T12:01:14;2.10;;;1.42;;
70667;SDS011;58242;51.250;-1.118;2023-08-01T12:06:19;3.08;;;2.08;;
70667;SDS011;58242;51.250;-1.118;2023-08-01T12:08:52;2.08;;;1.98;;
70667;SDS011;58242;51.250;-1.118;2023-08-01T12:13:44;1.67;;;1.58;;
70667;SDS011;58242;51.250;-1.118;2023-08-01T12:16:09;2.53;;;1.83;;
70667;SDS011;58242;51.250;-1.118;2023-08-01T12:18:34;1.85;;;1.75;;
70667;SDS011;58242;51.250;-1.118;2023-08-01T12:21:02;1.60;;;1.50;;
70667;SDS011;58242;51.250;-1.118;2023-08-01T12:23:30;3.78;;;2.30;;
70667;SDS011;58242;51.250;-1.118;2023-08-01T12:25:56;3.00;;;2.03;;
70667;SDS011;58242;51.250;-1.118;2023-08-01T12:28:21;2.35;;;1.75;;
70667;SDS011;58242;51.250;-1.118;2023-08-01T12:30:46;1.80;;;1.70;;
70667;SDS011;58242;51.250;-1.118;2023-08-01T12:33:13;2.30;;;1.60;;
70667;SDS011;58242;51.250;-1.118;2023-08-01T12:35:39;2.33;;;1.77;;
70667;SDS011;58242;51.250;-1.118;2023-08-01T12:38:05;2.92;;;1.88;;
70667;SDS011;58242;51.250;-1.118;2023-08-01T12:40:31;1.50;;;1.40;;
70667;SDS011;58242;51.250;-1.118;2023-08-01T12:42:56;1.55;;;1.45;;
70667;SDS011;58242;51.250;-1.118;2023-08-01T12:45:22;2.15;;;1.95;;
70667;SDS011;58242;51.250;-1.118;2023-08-01T12:47:48;1.65;;;1.55;;
70667;SDS011;58242;51.250;-1.118;2023-08-01T12:50:14;2.35;;;1.80;;
70667;SDS011;58242;51.250;-1.118;2023-08-01T12:52:39;1.90;;;1.80;;
70667;SDS011;58242;51.250;-1.118;2023-08-01T12:55:05;2.38;;;1.83;;
70667;SDS011;58242;51.250;-1.118;2023-08-01T12:57:30;1.65;;;1.50;;
70667;SDS011;58242;51.250;-1.118;2023-08-01T12:59:56;1.40;;;1.30;;
70667;SDS011;58242;51.250;-1.118;2023-08-01T13:02:21;2.00;;;1.90;;
70667;SDS011;58242;51.250;-1.118;2023-08-01T13:04:46;1.35;;;1.25;;
70667;SDS011;58242;51.250;-1.118;2023-08-01T13:07:12;1.88;;;1.77;;
70667;SDS011;58242;51.250;-1.118;2023-08-01T13:09:37;1.80;;;1.70;;
70667;SDS011;58242;51.250;-1.118;2023-08-01T13:12:02;2.28;;;2.13;;
70667;SDS011;58242;51.250;-1.118;2023-08-01T13:14:28;1.75;;;1.65;;
70667;SDS011;58242;51.250;-1.118;2023-08-01T13:16:53;2.05;;;1.85;;
70667;SDS011;58242;51.250;-1.118;2023-08-01T13:19:19;2.50;;;2.30;;
70667;SDS011;58242;51.250;-1.118;2023-08-01T13:21:44;1.52;;;1.42;;
70667;SDS011;58242;51.250;-1.118;2023-08-01T13:24:09;1.80;;;1.70;;
70667;SDS011;58242;51.250;-1.118;2023-08-01T13:26:35;1.88;;;1.77;;
70667;SDS011;58242;51.250;-1.118;2023-08-01T13:29:01;1.77;;;1.67;;
70667;SDS011;58242;51.250;-1.118;2023-08-01T13:31:26;1.75;;;1.75;;
70667;SDS011;58242;51.250;-1.118;2023-08-01T13:33:52;1.73;;;1.63;;
70667;SDS011;58242;51.250;-1.118;2023-08-01T13:36:18;1.30;;;1.30;;
70667;SDS011;58242;51.250;-1.118;2023-08-01T13:38:44;1.70;;;1.60;;
70667;SDS011;58242;51.250;-1.118;2023-08-01T13:41:09;1.85;;;1.75;;
70667;SDS011;58242;51.250;-1.118;2023-08-01T13:43:34;1.48;;;1.38;;
70667;SDS011;58242;51.250;-1.118;2023-08-01T13:46:00;1.42;;;1.42;;
70667;SDS011;58242;51.250;-1.118;2023-08-01T13:48:28;1.85;;;1.75;;
70667;SDS011;58242;51.250;-1.118;2023-08-01T13:51:00;1.33;;;1.23;;
70667;SDS011;58242;51.250;-1.118;2023-08-01T13:55:50;1.50;;;1.40;;
70667;SDS011;58242;51.250;-1.118;2023-08-01T13:58:15;1.45;;;1.38;;
70667;SDS011;58242;51.250;-1.118;2023-08-01T14:00:41;1.70;;;1.60;;
70667;SDS011;58242;51.250;-1.118;2023-08-01T14:03:06;1.73;;;1.50;;
70667;SDS011;58242;51.250;-1.118;2023-08-01T14:05:31;1.70;;;1.60;;
70667;SDS011;58242;51.250;-1.118;2023-08-01T14:07:57;2.50;;;2.30;;
70667;SDS011;58242;51.250;-1.118;2023-08-01T14:10:22;2.00;;;1.90;;
70667;SDS011;58242;51.250;-1.118;2023-08-01T14:12:47;1.55;;;1.40;;
70667;SDS011;58242;51.250;-1.118;2023-08-01T14:15:12;1.38;;;1.35;;
70667;SDS011;58242;51.250;-1.118;2023-08-01T14:17:38;1.60;;;1.50;;
70667;SDS011;58242;51.250;-1.118;2023-08-01T14:20:04;1.98;;;1.85;;
70667;SDS011;58242;51.250;-1.118;2023-08-01T14:22:30;1.73;;;1.63;;
70667;SDS011;58242;51.250;-1.118;2023-08-01T14:24:55;1.77;;;1.67;;
70667;SDS011;58242;51.250;-1.118;2023-08-01T14:27:20;2.00;;;1.90;;
70667;SDS011;58242;51.250;-1.118;2023-08-01T14:29:46;1.85;;;1.70;;
70667;SDS011;58242;51.250;-1.118;2023-08-01T14:32:12;1.83;;;1.73;;
70667;SDS011;58242;51.250;-1.118;2023-08-01T14:34:37;2.28;;;1.80;;
70667;SDS011;58242;51.250;-1.118;2023-08-01T14:37:03;2.28;;;2.08;;
70667;SDS011;58242;51.250;-1.118;2023-08-01T14:39:28;1.60;;;1.50;;
70667;SDS011;58242;51.250;-1.118;2023-08-01T14:41:54;2.05;;;1.90;;
70667;SDS011;58242;51.250;-1.118;2023-08-01T14:44:20;1.83;;;1.67;;